createdAt,value
2018-08-12T00:00:18.492Z,97405.38
2018-08-12T00:02:46.964Z,97401.18
2018-08-12T00:05:15.313Z,97398.56
2018-08-12T00:07:43.744Z,97400.16
2018-08-12T00:10:12.621Z,97396.58
2018-08-12T00:12:41.909Z,97391.30
2018-08-12T00:15:12.414Z,97385.23
2018-08-12T00:17:40.788Z,97388.70
2018-08-12T00:20:13.364Z,97383.78
2018-08-12T00:22:41.730Z,97387.08
2018-08-12T00:25:12.606Z,97378.80
2018-08-12T00:27:41.352Z,97373.94
2018-08-12T00:30:11.336Z,97378.60
2018-08-12T00:32:39.845Z,97371.02
2018-08-12T00:35:11.480Z,97371.70
2018-08-12T00:37:40.355Z,97374.38
2018-08-12T00:40:10.037Z,97375.62
2018-08-12T00:42:38.500Z,97375.62
2018-08-12T00:45:08.944Z,97373.97
2018-08-12T00:47:37.332Z,97369.21
2018-08-12T00:50:06.483Z,97368.45
2018-08-12T00:52:34.840Z,97372.53
2018-08-12T00:55:03.220Z,97371.20
2018-08-12T00:57:31.604Z,97364.98
2018-08-12T01:00:00.007Z,97364.17
2018-08-12T01:02:28.648Z,97360.03
2018-08-12T01:05:13.338Z,97358.20
2018-08-12T01:07:55.317Z,97352.58
2018-08-12T01:10:23.691Z,97351.36
2018-08-12T01:12:52.085Z,97358.40
2018-08-12T01:15:21.319Z,97352.66
2018-08-12T01:17:49.728Z,97347.61
2018-08-12T01:20:24.924Z,97346.03
2018-08-12T01:22:53.335Z,97346.45
2018-08-12T01:25:22.137Z,97344.45
2018-08-12T01:27:50.558Z,97341.84
2018-08-12T01:30:21.089Z,97335.58
2018-08-12T01:32:49.577Z,97340.59
2018-08-12T01:35:18.171Z,97345.95
2018-08-12T01:37:47.283Z,97341.84
2018-08-12T01:40:16.904Z,97344.83
2018-08-12T01:42:45.747Z,97338.33
2018-08-12T01:45:15.754Z,97340.09
2018-08-12T01:47:45.943Z,97337.94
2018-08-12T01:50:15.673Z,97340.42
2018-08-12T01:52:44.055Z,97336.01
2018-08-12T01:55:12.437Z,97339.09
2018-08-12T01:57:40.841Z,97337.55
2018-08-12T02:00:13.417Z,97336.11
2018-08-12T02:02:41.788Z,97336.22
2018-08-12T02:05:10.172Z,97330.27
2018-08-12T02:07:38.556Z,97330.66
2018-08-12T02:10:07.856Z,97328.86
2018-08-12T02:12:36.228Z,97322.82
2018-08-12T02:15:05.655Z,97329.00
2018-08-12T02:17:34.047Z,97317.83
2018-08-12T02:20:02.598Z,97319.85
2018-08-12T02:22:31.003Z,97312.97
2018-08-12T02:24:59.368Z,97320.00
2018-08-12T02:27:27.715Z,97318.89
2018-08-12T02:29:56.042Z,97309.71
2018-08-12T02:32:24.459Z,97305.03
2018-08-12T02:34:53.011Z,97305.92
2018-08-12T02:37:21.460Z,97302.72
2018-08-12T02:39:49.837Z,97295.23
2018-08-12T02:42:18.224Z,97291.64
2018-08-12T02:44:46.567Z,97291.80
2018-08-12T02:47:14.939Z,97287.09
2018-08-12T02:49:43.308Z,97284.56
2018-08-12T02:52:11.668Z,97281.42
2018-08-12T02:54:40.619Z,97279.69
2018-08-12T02:57:09.013Z,97280.54
2018-08-12T02:59:37.373Z,97272.19
2018-08-12T03:02:05.843Z,97281.27
2018-08-12T03:04:34.195Z,97272.41
2018-08-12T03:07:02.928Z,97274.76
2018-08-12T03:09:31.288Z,97270.52
2018-08-12T03:11:59.713Z,97272.41
2018-08-12T03:14:28.108Z,97268.29
2018-08-12T03:16:56.492Z,97261.00
2018-08-12T03:19:25.167Z,97254.99
2018-08-12T03:21:53.568Z,97237.03
2018-08-12T03:24:21.939Z,97244.41
2018-08-12T03:26:50.290Z,97246.12
2018-08-12T03:29:18.692Z,97242.41
2018-08-12T03:31:47.044Z,97234.84
2018-08-12T03:34:15.405Z,97230.86
2018-08-12T03:36:43.759Z,97230.82
2018-08-12T03:39:12.724Z,97232.75
2018-08-12T03:41:41.097Z,97229.78
2018-08-12T03:44:09.456Z,97231.68
2018-08-12T03:46:37.935Z,97225.19
2018-08-12T03:49:06.383Z,97219.31
2018-08-12T03:51:34.852Z,97217.91
2018-08-12T03:54:03.305Z,97223.56
2018-08-12T03:56:31.660Z,97221.83
2018-08-12T03:59:00.280Z,97217.42
2018-08-12T04:01:28.627Z,97217.55
2018-08-12T04:03:56.991Z,97205.70
2018-08-12T04:06:25.319Z,97205.36
2018-08-12T04:08:53.704Z,97209.62
2018-08-12T04:11:22.077Z,97201.30
2018-08-12T04:13:50.449Z,97198.72
2018-08-12T04:16:18.824Z,97200.79
2018-08-12T04:18:47.212Z,97199.83
2018-08-12T04:21:15.584Z,97202.31
2018-08-12T04:23:43.976Z,97202.78
2018-08-12T04:26:12.303Z,97208.80
2018-08-12T04:28:40.711Z,97208.72
2018-08-12T04:31:09.072Z,97205.08
2018-08-12T04:33:37.428Z,97209.23
2018-08-12T04:36:05.815Z,97204.57
2018-08-12T04:38:34.216Z,97203.46
2018-08-12T04:41:02.561Z,97204.05
2018-08-12T04:43:31.092Z,97193.88
2018-08-12T04:45:59.869Z,97198.55
2018-08-12T04:48:28.632Z,97193.81
2018-08-12T04:50:56.971Z,97197.50
2018-08-12T04:53:25.376Z,97195.16
2018-08-12T04:55:54.208Z,97202.56
2018-08-12T04:58:22.600Z,97200.41
2018-08-12T05:00:51.164Z,97189.54
2018-08-12T05:03:19.573Z,97194.47
2018-08-12T05:05:47.973Z,97190.91
2018-08-12T05:08:16.400Z,97195.34
2018-08-12T05:10:45.112Z,97197.26
2018-08-12T05:13:13.530Z,97192.25
2018-08-12T05:15:41.930Z,97183.73
2018-08-12T05:18:10.309Z,97187.18
2018-08-12T05:20:38.881Z,97180.11
2018-08-12T05:23:07.268Z,97178.58
2018-08-12T05:25:35.644Z,97176.52
2018-08-12T05:28:04.040Z,97180.28
2018-08-12T05:30:32.419Z,97175.83
2018-08-12T05:33:00.808Z,97181.27
2018-08-12T05:35:29.207Z,97179.84
2018-08-12T05:37:57.599Z,97179.01
2018-08-12T05:40:25.956Z,97181.84
2018-08-12T05:42:54.344Z,97183.02
2018-08-12T05:45:22.708Z,97179.55
2018-08-12T05:47:51.127Z,97169.58
2018-08-12T05:50:19.504Z,97161.34
2018-08-12T05:52:47.860Z,97164.28
2018-08-12T05:55:16.295Z,97161.66
2018-08-12T05:57:45.008Z,97165.16
2018-08-12T06:00:14.942Z,97150.20
2018-08-12T06:02:44.427Z,97154.62
2018-08-12T06:05:12.819Z,97154.24
2018-08-12T06:07:41.300Z,97151.97
2018-08-12T06:10:11.220Z,97149.38
2018-08-12T06:12:39.856Z,97146.19
2018-08-12T06:15:09.792Z,97143.88
2018-08-12T06:17:38.292Z,97144.53
2018-08-12T06:20:09.024Z,97148.11
2018-08-12T06:22:37.400Z,97144.88
2018-08-12T06:25:07.118Z,97145.89
2018-08-12T06:27:35.491Z,97145.80
2018-08-12T06:30:05.523Z,97144.25
2018-08-12T06:32:33.889Z,97139.39
2018-08-12T06:35:02.721Z,97136.31
2018-08-12T06:37:31.099Z,97136.39
2018-08-12T06:39:59.513Z,97139.47
2018-08-12T06:42:27.847Z,97135.45
2018-08-12T06:44:56.243Z,97130.22
2018-08-12T06:47:24.765Z,97127.89
2018-08-12T06:49:53.154Z,97126.98
2018-08-12T06:52:21.539Z,97129.59
2018-08-12T06:54:49.932Z,97132.75
2018-08-12T06:57:18.284Z,97131.77
2018-08-12T06:59:46.693Z,97127.34
2018-08-12T07:02:15.067Z,97122.79
2018-08-12T07:04:43.448Z,97125.36
2018-08-12T07:07:11.920Z,97124.22
2018-08-12T07:09:40.320Z,97125.88
2018-08-12T07:12:08.703Z,97127.78
2018-08-12T07:14:37.112Z,97120.30
2018-08-12T07:17:05.495Z,97123.52
2018-08-12T07:19:33.925Z,97118.56
2018-08-12T07:22:02.320Z,97114.16
2018-08-12T07:24:30.712Z,97111.94
2018-08-12T07:26:59.136Z,97111.45
2018-08-12T07:29:27.663Z,97100.05
2018-08-12T07:31:56.088Z,97112.15
2018-08-12T07:34:24.475Z,97102.48
2018-08-12T07:36:52.848Z,97103.35
2018-08-12T07:39:21.291Z,97099.72
2018-08-12T07:41:49.688Z,97104.70
2018-08-12T07:44:18.095Z,97101.77
2018-08-12T07:46:46.441Z,97098.64
2018-08-12T07:49:14.833Z,97095.30
2018-08-12T07:51:43.212Z,97088.34
2018-08-12T07:54:11.857Z,97092.09
2018-08-12T07:56:40.236Z,97093.38
2018-08-12T07:59:08.615Z,97086.89
2018-08-12T08:01:36.981Z,97096.39
2018-08-12T08:04:05.423Z,97082.44
2018-08-12T08:06:34.220Z,97081.83
2018-08-12T08:09:02.664Z,97087.76
2018-08-12T08:11:31.069Z,97085.88
2018-08-12T08:13:59.460Z,97082.96
2018-08-12T08:16:27.879Z,97090.78
2018-08-12T08:18:56.312Z,97078.45
2018-08-12T08:21:24.728Z,97076.41
2018-08-12T08:23:53.128Z,97082.98
2018-08-12T08:26:21.499Z,97078.23
2018-08-12T08:28:49.860Z,97079.48
2018-08-12T08:31:19.460Z,97083.48
2018-08-12T08:33:48.651Z,97086.83
2018-08-12T08:36:18.656Z,97088.68
2018-08-12T08:38:47.091Z,97085.28
2018-08-12T08:41:15.491Z,97089.67
2018-08-12T08:43:43.862Z,97097.36
2018-08-12T08:46:12.308Z,97093.25
2018-08-12T08:48:40.728Z,97081.72
2018-08-12T08:51:09.437Z,97081.58
2018-08-12T08:53:38.741Z,97086.09
2018-08-12T08:56:07.284Z,97067.16
2018-08-12T08:58:35.676Z,97078.20
2018-08-12T09:01:04.124Z,97074.33
2018-08-12T09:03:32.468Z,97074.93
2018-08-12T09:06:00.895Z,97066.12
2018-08-12T09:08:29.546Z,97065.45
2018-08-12T09:10:57.705Z,97062.78
2018-08-12T09:13:26.099Z,97061.91
2018-08-12T09:15:54.601Z,97064.73
2018-08-12T09:18:23.071Z,97061.23
2018-08-12T09:20:51.452Z,97063.88
2018-08-12T09:23:19.820Z,97060.41
2018-08-12T09:25:48.492Z,97049.00
2018-08-12T09:28:16.863Z,97056.08
2018-08-12T09:30:45.308Z,97045.29
2018-08-12T09:33:13.687Z,97045.13
2018-08-12T09:35:42.084Z,97049.38
2018-08-12T09:38:10.503Z,97049.95
2018-08-12T09:40:39.282Z,97048.27
2018-08-12T09:43:07.794Z,97044.96
2018-08-12T09:45:36.109Z,97033.58
2018-08-12T09:48:04.752Z,97032.16
2018-08-12T09:50:33.171Z,97024.86
2018-08-12T09:53:06.879Z,97018.51
2018-08-12T09:55:35.682Z,97024.23
2018-08-12T09:58:04.160Z,97013.36
2018-08-12T10:00:40.091Z,97017.69
2018-08-12T10:03:09.175Z,97001.44
2018-08-12T10:05:37.658Z,97012.59
2018-08-12T10:08:06.681Z,97006.28
2018-08-12T10:10:35.052Z,96997.95
2018-08-12T10:13:03.460Z,96998.08
2018-08-12T10:15:31.881Z,97002.93
2018-08-12T10:18:01.796Z,96998.87
2018-08-12T10:20:30.250Z,96997.98
2018-08-12T10:22:58.687Z,97004.91
2018-08-12T10:25:27.164Z,96990.31
2018-08-12T10:27:55.536Z,96989.91
2018-08-12T10:30:23.964Z,96984.27
2018-08-12T10:32:52.408Z,96977.11
2018-08-12T10:35:21.023Z,96983.62
2018-08-12T10:37:49.432Z,96976.55
2018-08-12T10:40:19.417Z,96982.89
2018-08-12T10:42:48.636Z,96980.38
2018-08-12T10:45:17.660Z,96973.99
2018-08-12T10:47:46.438Z,96963.41
2018-08-12T10:50:16.808Z,96961.35
2018-08-12T10:52:46.004Z,96969.20
2018-08-12T10:55:15.732Z,96970.84
2018-08-12T10:57:44.224Z,96953.86
2018-08-12T11:00:14.883Z,96948.34
2018-08-12T11:02:51.038Z,96938.30
2018-08-12T11:05:19.531Z,96945.35
2018-08-12T11:07:50.955Z,96950.09
2018-08-12T11:10:19.435Z,96942.13
2018-08-12T11:12:48.007Z,96940.64
2018-08-12T11:15:16.701Z,96939.06
2018-08-12T11:17:45.967Z,96934.52
2018-08-12T11:20:14.705Z,96931.68
2018-08-12T11:22:43.103Z,96922.63
2018-08-12T11:25:12.288Z,96919.60
2018-08-12T11:27:40.735Z,96922.13
2018-08-12T11:30:11.244Z,96923.02
2018-08-12T11:32:40.000Z,96913.23
2018-08-12T11:35:10.596Z,96912.23
2018-08-12T11:37:39.244Z,96907.70
2018-08-12T11:40:08.808Z,96900.40
2018-08-12T11:42:37.247Z,96903.16
2018-08-12T11:45:09.029Z,96893.98
2018-08-12T11:47:37.491Z,96888.41
2018-08-12T11:50:06.436Z,96885.36
2018-08-12T11:52:34.849Z,96879.50
2018-08-12T11:55:03.514Z,96883.34
2018-08-12T11:57:31.912Z,96874.59
2018-08-12T12:00:00.285Z,96875.36
2018-08-12T12:02:28.683Z,96871.92
2018-08-12T12:04:57.083Z,96867.19
2018-08-12T12:07:25.508Z,96869.18
2018-08-12T12:09:53.894Z,96858.65
2018-08-12T12:12:23.263Z,96858.13
2018-08-12T12:14:51.623Z,96868.09
2018-08-12T12:17:20.045Z,96856.31
2018-08-12T12:19:48.660Z,96860.16
2018-08-12T12:22:17.113Z,96858.65
2018-08-12T12:24:45.513Z,96856.27
2018-08-12T12:27:18.156Z,96851.03
2018-08-12T12:29:47.952Z,96843.07
2018-08-12T12:32:16.909Z,96840.58
2018-08-12T12:34:45.288Z,96848.05
2018-08-12T12:37:13.742Z,96851.37
2018-08-12T12:39:42.264Z,96828.79
2018-08-12T12:42:11.552Z,96822.44
2018-08-12T12:44:41.008Z,96828.96
2018-08-12T12:47:09.519Z,96820.66
2018-08-12T12:49:38.852Z,96809.97
2018-08-12T12:52:08.525Z,96809.80
2018-08-12T12:54:37.952Z,96810.48
2018-08-12T12:57:06.410Z,96801.34
2018-08-12T12:59:34.824Z,96799.78
2018-08-12T13:02:03.219Z,96805.80
2018-08-12T13:04:32.080Z,96799.34
2018-08-12T13:07:00.496Z,96805.55
2018-08-12T13:09:28.876Z,96802.52
2018-08-12T13:11:57.380Z,96798.09
2018-08-12T13:14:26.333Z,96805.00
2018-08-12T13:16:55.353Z,96793.13
2018-08-12T13:19:25.344Z,96788.73
2018-08-12T13:21:55.242Z,96783.08
2018-08-12T13:24:24.943Z,96773.86
2018-08-12T13:26:54.407Z,96773.66
2018-08-12T13:29:23.290Z,96772.62
2018-08-12T13:31:53.048Z,96763.84
2018-08-12T13:34:21.542Z,96755.34
2018-08-12T13:36:49.980Z,96753.72
2018-08-12T13:39:18.363Z,96761.98
2018-08-12T13:41:46.804Z,96751.91
2018-08-12T13:44:16.303Z,96742.32
2018-08-12T13:46:45.768Z,96736.98
2018-08-12T13:49:15.762Z,96737.15
2018-08-12T13:51:45.152Z,96742.80
2018-08-12T13:54:15.460Z,96740.91
2018-08-12T13:56:45.025Z,96735.63
2018-08-12T13:59:14.382Z,96721.24
2018-08-12T14:01:44.515Z,96726.02
2018-08-12T14:04:14.808Z,96717.59
2018-08-12T14:06:44.968Z,96715.81
2018-08-12T14:09:14.874Z,96698.64
2018-08-12T14:11:44.764Z,96702.72
2018-08-12T14:14:13.176Z,96695.98
2018-08-12T14:16:41.575Z,96696.08
2018-08-12T14:19:09.991Z,96686.63
2018-08-12T14:21:38.389Z,96692.07
2018-08-12T14:24:06.872Z,96674.34
2018-08-12T14:26:35.292Z,96668.77
2018-08-12T14:29:03.701Z,96670.73
2018-08-12T14:31:33.009Z,96673.13
2018-08-12T14:34:01.540Z,96664.56
2018-08-12T14:36:29.975Z,96657.81
2018-08-12T14:38:58.344Z,96660.13
2018-08-12T14:41:26.759Z,96660.19
2018-08-12T14:43:55.193Z,96648.65
2018-08-12T14:46:23.605Z,96643.47
2018-08-12T14:48:52.344Z,96642.55
2018-08-12T14:51:20.777Z,96640.03
2018-08-12T14:53:49.228Z,96637.06
2018-08-12T14:56:17.957Z,96629.80
2018-08-12T14:58:46.371Z,96626.91
2018-08-12T15:01:14.732Z,96622.80
2018-08-12T15:03:43.164Z,96634.38
2018-08-12T15:06:11.544Z,96633.59
2018-08-12T15:08:39.939Z,96623.67
2018-08-12T15:11:08.361Z,96634.47
2018-08-12T15:13:36.724Z,96628.36
2018-08-12T15:16:05.117Z,96630.80
2018-08-12T15:18:33.523Z,96619.42
2018-08-12T15:21:01.918Z,96606.14
2018-08-12T15:23:30.320Z,96605.05
2018-08-12T15:25:58.764Z,96606.02
2018-08-12T15:28:27.143Z,96615.13
2018-08-12T15:30:55.539Z,96602.37
2018-08-12T15:33:24.626Z,96595.86
2018-08-12T15:35:53.052Z,96599.02
2018-08-12T15:38:21.441Z,96598.67
2018-08-12T15:40:49.844Z,96597.59
2018-08-12T15:43:18.183Z,96595.25
2018-08-12T15:45:46.568Z,96596.66
2018-08-12T15:48:14.951Z,96588.14
2018-08-12T15:50:43.409Z,96588.05
2018-08-12T15:53:11.868Z,96584.08
2018-08-12T15:55:40.259Z,96583.34
2018-08-12T15:58:08.655Z,96579.02
2018-08-12T16:00:37.099Z,96566.60
2018-08-12T16:03:05.939Z,96575.47
2018-08-12T16:05:34.659Z,96567.65
2018-08-12T16:08:03.637Z,96576.75
2018-08-12T16:10:32.140Z,96569.95
2018-08-12T16:13:01.076Z,96566.06
2018-08-12T16:15:29.432Z,96570.28
2018-08-12T16:17:57.804Z,96560.64
2018-08-12T16:20:26.184Z,96564.99
2018-08-12T16:22:54.512Z,96575.68
2018-08-12T16:25:23.013Z,96551.40
2018-08-12T16:27:51.780Z,96548.46
2018-08-12T16:30:20.439Z,96547.16
2018-08-12T16:32:49.088Z,96550.98
2018-08-12T16:35:18.221Z,96544.71
2018-08-12T16:37:47.043Z,96537.42
2018-08-12T16:40:17.168Z,96536.56
2018-08-12T16:42:45.812Z,96536.19
2018-08-12T16:45:15.332Z,96538.45
2018-08-12T16:47:44.155Z,96531.30
2018-08-12T16:50:12.828Z,96531.41
2018-08-12T16:52:41.692Z,96530.70
2018-08-12T16:55:12.132Z,96527.03
2018-08-12T16:57:40.539Z,96531.78
2018-08-12T17:00:11.760Z,96520.33
2018-08-12T17:02:40.125Z,96523.02
2018-08-12T17:05:10.760Z,96520.77
2018-08-12T17:07:39.199Z,96517.80
2018-08-12T17:10:08.560Z,96526.44
2018-08-12T17:12:36.941Z,96518.13
2018-08-12T17:15:06.444Z,96520.05
2018-08-12T17:17:34.896Z,96510.20
2018-08-12T17:20:03.534Z,96515.21
2018-08-12T17:22:32.196Z,96512.31
2018-08-12T17:25:00.624Z,96516.98
2018-08-12T17:27:29.297Z,96512.00
2018-08-12T17:29:57.671Z,96506.49
2018-08-12T17:32:26.082Z,96502.06
2018-08-12T17:34:54.475Z,96502.48
2018-08-12T17:37:22.854Z,96505.23
2018-08-12T17:39:51.316Z,96502.05
2018-08-12T17:42:20.120Z,96504.33
2018-08-12T17:44:48.480Z,96498.67
2018-08-12T17:47:16.871Z,96495.02
2018-08-12T17:49:45.518Z,96495.55
2018-08-12T17:52:13.948Z,96492.66
2018-08-12T17:54:42.287Z,96490.94
2018-08-12T17:57:10.960Z,96489.36
2018-08-12T17:59:39.332Z,96493.02
2018-08-12T18:02:07.739Z,96489.06
2018-08-12T18:04:36.101Z,96490.35
2018-08-12T18:07:04.744Z,96487.16
2018-08-12T18:09:33.083Z,96486.75
2018-08-12T18:12:01.492Z,96488.70
2018-08-12T18:14:29.832Z,96485.76
2018-08-12T18:16:58.636Z,96491.75
2018-08-12T18:19:26.992Z,96484.61
2018-08-12T18:21:55.357Z,96494.19
2018-08-12T18:24:23.744Z,96487.59
2018-08-12T18:26:52.175Z,96485.78
2018-08-12T18:29:20.531Z,96490.28
2018-08-12T18:31:49.038Z,96484.89
2018-08-12T18:34:17.440Z,96485.79
2018-08-12T18:36:45.792Z,96484.32
2018-08-12T18:39:14.128Z,96488.94
2018-08-12T18:41:42.507Z,96486.09
2018-08-12T18:44:11.455Z,96490.28
2018-08-12T18:46:40.356Z,96490.21
2018-08-12T18:49:08.687Z,96493.90
2018-08-12T18:51:37.072Z,96490.76
2018-08-12T18:54:05.484Z,96491.27
2018-08-12T18:56:33.855Z,96493.41
2018-08-12T18:59:02.183Z,96493.42
2018-08-12T19:01:30.625Z,96495.08
2018-08-12T19:03:58.979Z,96483.80
2018-08-12T19:06:27.411Z,96490.58
2018-08-12T19:08:55.776Z,96496.07
2018-08-12T19:11:24.520Z,96496.19
2018-08-12T19:13:52.848Z,96499.40
2018-08-12T19:16:21.231Z,96504.78
2018-08-12T19:18:49.612Z,96506.83
2018-08-12T19:21:18.236Z,96506.30
2018-08-12T19:23:46.596Z,96508.41
2018-08-12T19:26:14.956Z,96504.59
2018-08-12T19:28:43.308Z,96513.06
2018-08-12T19:31:11.619Z,96506.49
2018-08-12T19:33:40.068Z,96508.14
2018-08-12T19:36:08.396Z,96511.53
2018-08-12T19:38:36.828Z,96511.88
2018-08-12T19:41:05.187Z,96508.85
2018-08-12T19:43:33.569Z,96511.68
2018-08-12T19:46:01.924Z,96504.48
2018-08-12T19:48:30.296Z,96506.41
2018-08-12T19:50:58.947Z,96509.09
2018-08-12T19:53:27.354Z,96511.71
2018-08-12T19:55:55.704Z,96505.02
2018-08-12T19:58:24.139Z,96507.77
2018-08-12T20:00:52.484Z,96507.98
2018-08-12T20:03:20.867Z,96504.09
2018-08-12T20:05:49.271Z,96507.33
2018-08-12T20:08:17.648Z,96510.82
2018-08-12T20:10:46.020Z,96503.36
2018-08-12T20:13:14.398Z,96497.27
2018-08-12T20:15:42.748Z,96504.42
2018-08-12T20:18:11.155Z,96498.24
2018-08-12T20:20:39.488Z,96494.80
2018-08-12T20:23:07.881Z,96493.70
2018-08-12T20:25:36.266Z,96492.56
2018-08-12T20:28:04.746Z,96491.89
2018-08-12T20:30:33.048Z,96492.14
2018-08-12T20:33:01.422Z,96482.23
2018-08-12T20:35:29.792Z,96484.12
2018-08-12T20:37:58.204Z,96483.20
2018-08-12T20:40:26.583Z,96484.26
2018-08-12T20:42:55.050Z,96483.53
2018-08-12T20:45:23.408Z,96481.00
2018-08-12T20:47:52.124Z,96481.25
2018-08-12T20:50:20.563Z,96476.20
2018-08-12T20:52:48.912Z,96478.36
2018-08-12T20:55:17.622Z,96474.12
2018-08-12T20:57:46.000Z,96468.88
2018-08-12T21:00:14.772Z,96469.38
2018-08-12T21:02:43.163Z,96470.35
2018-08-12T21:05:11.544Z,96469.50
2018-08-12T21:07:41.209Z,96467.27
2018-08-12T21:10:09.789Z,96467.17
2018-08-12T21:12:38.221Z,96461.34
2018-08-12T21:15:06.921Z,96464.78
2018-08-12T21:17:35.352Z,96460.36
2018-08-12T21:20:03.768Z,96457.77
2018-08-12T21:22:32.158Z,96458.38
2018-08-12T21:25:00.499Z,96458.79
2018-08-12T21:27:28.919Z,96452.75
2018-08-12T21:29:57.251Z,96455.32
2018-08-12T21:32:26.044Z,96448.92
2018-08-12T21:34:54.391Z,96441.86
2018-08-12T21:37:22.787Z,96449.44
2018-08-12T21:39:51.149Z,96444.86
2018-08-12T21:42:19.740Z,96435.28
2018-08-12T21:44:48.167Z,96438.02
2018-08-12T21:47:16.515Z,96436.05
2018-08-12T21:49:44.862Z,96434.90
2018-08-12T21:52:13.219Z,96435.09
2018-08-12T21:54:41.604Z,96436.48
2018-08-12T21:57:10.783Z,96428.80
2018-08-12T21:59:39.176Z,96428.32
2018-08-12T22:02:07.888Z,96426.97
2018-08-12T22:04:36.272Z,96421.08
2018-08-12T22:07:04.696Z,96418.95
2018-08-12T22:09:33.092Z,96422.51
2018-08-12T22:12:01.424Z,96422.39
2018-08-12T22:14:30.048Z,96412.89
2018-08-12T22:16:58.400Z,96417.76
2018-08-12T22:19:26.768Z,96411.91
2018-08-12T22:21:55.164Z,96413.38
2018-08-12T22:24:24.012Z,96414.36
2018-08-12T22:26:52.389Z,96419.18
2018-08-12T22:29:20.780Z,96417.78
2018-08-12T22:31:49.156Z,96418.45
2018-08-12T22:34:17.512Z,96411.62
2018-08-12T22:36:45.854Z,96416.51
2018-08-12T22:39:14.200Z,96413.48
2018-08-12T22:41:42.587Z,96409.56
2018-08-12T22:44:10.967Z,96410.69
2018-08-12T22:46:39.324Z,96401.88
2018-08-12T22:49:07.711Z,96401.88
2018-08-12T22:51:36.041Z,96394.27
2018-08-12T22:54:04.444Z,96395.05
2018-08-12T22:56:32.781Z,96393.52
2018-08-12T22:59:01.172Z,96390.66
2018-08-12T23:01:29.592Z,96384.52
2018-08-12T23:03:58.196Z,96388.10
2018-08-12T23:06:26.576Z,96380.75
2018-08-12T23:08:54.926Z,96384.27
2018-08-12T23:11:23.275Z,96385.57
2018-08-12T23:13:51.651Z,96383.73
2018-08-12T23:16:31.235Z,96380.04
2018-08-12T23:18:59.616Z,96373.70
2018-08-12T23:21:28.210Z,96379.42
2018-08-12T23:23:56.600Z,96373.19
2018-08-12T23:26:25.251Z,96371.67
2018-08-12T23:28:54.004Z,96364.22
2018-08-12T23:31:22.348Z,96360.09
2018-08-12T23:33:50.927Z,96355.34
2018-08-12T23:36:19.283Z,96353.25
2018-08-12T23:38:47.644Z,96342.89
2018-08-12T23:41:15.972Z,96327.30
2018-08-12T23:43:44.324Z,96340.13
2018-08-12T23:46:12.728Z,96333.41
2018-08-12T23:48:41.123Z,96325.98
2018-08-12T23:51:09.522Z,96324.35
2018-08-12T23:53:37.891Z,96315.37
2018-08-12T23:56:06.324Z,96314.17
2018-08-12T23:58:34.688Z,96309.66
